createdAt,value
2022-10-20T00:00:08.164Z,21.12
2022-10-20T00:02:34.774Z,21.10
2022-10-20T00:05:01.366Z,21.14
2022-10-20T00:07:27.697Z,21.14
2022-10-20T00:09:54.000Z,21.12
2022-10-20T00:12:20.314Z,21.11
2022-10-20T00:14:46.614Z,21.09
2022-10-20T00:17:12.932Z,21.10
2022-10-20T00:19:39.228Z,21.09
2022-10-20T00:22:05.539Z,21.08
2022-10-20T00:24:31.842Z,21.06
2022-10-20T00:26:58.148Z,21.07
2022-10-20T00:29:24.473Z,21.06
2022-10-20T00:31:50.787Z,21.04
2022-10-20T00:34:17.113Z,21.04
2022-10-20T00:36:46.323Z,21.05
2022-10-20T00:39:15.186Z,21.03
2022-10-20T00:41:41.572Z,21.04
2022-10-20T00:44:26.621Z,21.01
2022-10-20T00:46:52.943Z,21.01
2022-10-20T00:49:20.828Z,20.99
2022-10-20T00:51:47.161Z,21.01
2022-10-20T00:54:14.854Z,21.00
2022-10-20T00:56:41.889Z,20.98
2022-10-20T00:59:08.198Z,20.99
2022-10-20T01:01:34.543Z,20.97
2022-10-20T01:04:00.983Z,20.98
2022-10-20T01:06:27.294Z,20.97
2022-10-20T01:08:53.779Z,20.97
2022-10-20T01:11:26.239Z,20.97
2022-10-20T01:13:56.457Z,20.95
2022-10-20T01:16:37.146Z,20.94
2022-10-20T01:19:15.651Z,20.93
2022-10-20T01:21:45.923Z,20.93
2022-10-20T01:24:17.581Z,20.93
2022-10-20T01:26:52.362Z,20.92
2022-10-20T01:29:19.820Z,20.92
2022-10-20T01:31:50.248Z,20.92
2022-10-20T01:34:21.341Z,20.93
2022-10-20T01:36:49.083Z,20.91
2022-10-20T01:39:16.528Z,20.90
2022-10-20T01:41:43.703Z,20.90
2022-10-20T01:44:10.770Z,20.89
2022-10-20T01:46:37.175Z,20.89
2022-10-20T01:49:03.494Z,20.88
2022-10-20T01:51:29.869Z,20.88
2022-10-20T01:53:56.280Z,20.89
2022-10-20T01:56:30.989Z,20.90
2022-10-20T01:59:00.998Z,20.87
2022-10-20T02:01:45.950Z,20.87
2022-10-20T02:04:12.332Z,20.86
2022-10-20T02:06:51.611Z,20.84
2022-10-20T02:09:18.889Z,20.84
2022-10-20T02:11:49.429Z,20.84
2022-10-20T02:14:15.958Z,20.86
2022-10-20T02:16:44.262Z,20.85
2022-10-20T02:19:10.592Z,20.86
2022-10-20T02:21:40.375Z,20.84
2022-10-20T02:24:07.349Z,20.83
2022-10-20T02:26:33.911Z,20.85
2022-10-20T02:29:01.602Z,20.84
2022-10-20T02:31:27.931Z,20.86
2022-10-20T02:33:54.762Z,20.84
2022-10-20T02:36:21.246Z,20.84
2022-10-20T02:38:47.552Z,20.83
2022-10-20T02:41:13.911Z,20.82
2022-10-20T02:43:40.226Z,20.83
2022-10-20T02:46:06.663Z,20.89
2022-10-20T02:48:33.045Z,20.92
2022-10-20T02:50:59.370Z,20.90
2022-10-20T02:53:25.696Z,20.90
2022-10-20T02:55:52.041Z,20.93
2022-10-20T02:58:18.358Z,20.97
2022-10-20T03:00:44.737Z,21.00
2022-10-20T03:03:11.071Z,21.01
2022-10-20T03:05:41.793Z,21.03
2022-10-20T03:08:08.106Z,21.04
2022-10-20T03:10:35.273Z,21.03
2022-10-20T03:13:01.600Z,21.05
2022-10-20T03:15:27.904Z,21.03
2022-10-20T03:17:54.219Z,21.04
2022-10-20T03:20:20.541Z,21.04
2022-10-20T03:22:46.866Z,21.05
2022-10-20T03:25:13.182Z,21.06
2022-10-20T03:27:39.533Z,21.07
2022-10-20T03:30:06.060Z,21.08
2022-10-20T03:32:32.382Z,21.09
2022-10-20T03:34:58.701Z,21.06
2022-10-20T03:37:25.033Z,21.10
2022-10-20T03:39:51.342Z,21.10
2022-10-20T03:42:17.681Z,21.10
2022-10-20T03:44:46.875Z,21.10
2022-10-20T03:47:13.245Z,21.10
2022-10-20T03:49:40.357Z,21.11
2022-10-20T03:52:06.678Z,21.11
2022-10-20T03:54:33.012Z,21.13
2022-10-20T03:56:59.330Z,21.12
2022-10-20T03:59:28.123Z,21.15
2022-10-20T04:01:56.842Z,21.15
2022-10-20T04:04:23.171Z,21.16
2022-10-20T04:06:49.489Z,21.16
2022-10-20T04:09:15.796Z,21.15
2022-10-20T04:11:42.155Z,21.16
2022-10-20T04:14:08.462Z,21.15
2022-10-20T04:16:34.821Z,21.16
2022-10-20T04:19:01.125Z,21.15
2022-10-20T04:21:27.437Z,21.15
2022-10-20T04:23:53.756Z,21.16
2022-10-20T04:26:20.112Z,21.17
2022-10-20T04:28:46.462Z,21.14
2022-10-20T04:31:12.770Z,21.18
2022-10-20T04:33:39.082Z,21.18
2022-10-20T04:36:06.344Z,21.18
2022-10-20T04:38:32.694Z,21.19
2022-10-20T04:41:01.902Z,21.18
2022-10-20T04:43:30.770Z,21.18
2022-10-20T04:46:03.845Z,21.19
2022-10-20T04:48:33.402Z,21.19
2022-10-20T04:51:00.514Z,21.20
2022-10-20T04:53:26.830Z,21.19
2022-10-20T04:55:56.493Z,21.20
2022-10-20T04:58:22.945Z,21.21
2022-10-20T05:00:49.265Z,21.20
2022-10-20T05:03:15.591Z,21.22
2022-10-20T05:05:41.925Z,21.22
2022-10-20T05:08:08.234Z,21.23
2022-10-20T05:10:36.671Z,21.23
2022-10-20T05:13:03.228Z,21.22
2022-10-20T05:15:29.546Z,21.23
2022-10-20T05:17:55.855Z,21.23
2022-10-20T05:20:22.198Z,21.24
2022-10-20T05:22:48.506Z,21.24
2022-10-20T05:28:01.125Z,21.25
2022-10-20T05:30:27.457Z,21.25
2022-10-20T05:32:53.765Z,21.25
2022-10-20T05:35:20.088Z,21.27
2022-10-20T05:37:46.410Z,21.26
2022-10-20T05:40:12.786Z,21.27
2022-10-20T05:42:39.346Z,21.25
2022-10-20T05:45:05.982Z,21.27
2022-10-20T05:47:32.294Z,21.28
2022-10-20T05:49:58.618Z,21.58
2022-10-20T05:52:24.932Z,21.64
2022-10-20T05:54:51.304Z,21.54
2022-10-20T05:57:18.134Z,21.30
2022-10-20T05:59:44.501Z,20.60
2022-10-20T06:02:11.124Z,20.45
2022-10-20T06:04:37.457Z,20.21
2022-10-20T06:07:05.691Z,20.04
2022-10-20T06:09:32.010Z,19.79
2022-10-20T06:11:58.605Z,19.87
2022-10-20T06:14:25.805Z,19.82
2022-10-20T06:16:52.436Z,19.66
2022-10-20T06:19:18.836Z,19.69
2022-10-20T06:21:45.193Z,19.64
2022-10-20T06:24:11.638Z,19.43
2022-10-20T06:26:37.952Z,19.35
2022-10-20T06:29:08.359Z,19.49
2022-10-20T06:31:35.437Z,20.29
2022-10-20T06:34:01.800Z,20.81
2022-10-20T06:36:28.207Z,20.98
2022-10-20T06:38:55.222Z,21.23
2022-10-20T06:41:21.685Z,21.30
2022-10-20T06:43:48.062Z,21.21
2022-10-20T06:46:15.495Z,21.30
2022-10-20T06:48:41.821Z,21.37
2022-10-20T06:51:09.826Z,21.42
2022-10-20T06:53:36.361Z,21.52
2022-10-20T06:56:03.593Z,21.65
2022-10-20T06:58:29.914Z,21.58
2022-10-20T07:01:25.290Z,21.63
2022-10-20T07:03:53.189Z,21.69
2022-10-20T07:06:23.383Z,21.47
2022-10-20T07:08:51.033Z,21.18
2022-10-20T07:11:18.122Z,21.14
2022-10-20T07:13:44.452Z,21.13
2022-10-20T07:16:14.031Z,21.22
2022-10-20T07:18:40.480Z,21.21
2022-10-20T07:21:07.725Z,21.20
2022-10-20T07:23:34.412Z,21.17
2022-10-20T07:26:01.418Z,21.58
2022-10-20T07:28:27.849Z,21.90
2022-10-20T07:30:54.531Z,21.97
2022-10-20T07:33:20.850Z,22.04
2022-10-20T07:35:47.850Z,22.25
2022-10-20T07:38:14.162Z,22.27
2022-10-20T07:40:40.507Z,22.26
2022-10-20T07:43:06.906Z,22.26
2022-10-20T07:45:33.254Z,22.24
2022-10-20T07:47:59.566Z,22.25
2022-10-20T07:50:26.059Z,22.27
2022-10-20T07:52:52.619Z,22.26
2022-10-20T07:55:37.526Z,22.32
2022-10-20T07:58:05.162Z,22.41
2022-10-20T08:00:31.525Z,22.36
2022-10-20T08:02:57.915Z,22.37
2022-10-20T08:05:24.247Z,22.33
2022-10-20T08:07:50.558Z,22.14
2022-10-20T08:10:16.869Z,22.23
2022-10-20T08:12:43.178Z,22.35
2022-10-20T08:15:16.832Z,22.39
2022-10-20T08:17:43.142Z,22.42
2022-10-20T08:20:14.106Z,22.50
2022-10-20T08:22:40.422Z,22.52
2022-10-20T08:25:06.860Z,22.49
2022-10-20T08:27:33.173Z,22.50
2022-10-20T08:30:06.031Z,22.40
2022-10-20T08:32:38.922Z,22.51
2022-10-20T08:35:05.698Z,22.45
2022-10-20T08:37:32.011Z,22.48
2022-10-20T08:39:58.329Z,22.52
2022-10-20T08:42:24.714Z,22.61
2022-10-20T08:44:51.034Z,22.66
2022-10-20T08:47:26.694Z,22.51
2022-10-20T08:49:55.599Z,22.56
2022-10-20T08:52:22.583Z,22.55
2022-10-20T08:54:48.903Z,22.57
2022-10-20T08:57:19.083Z,22.59
2022-10-20T08:59:45.419Z,22.61
2022-10-20T09:02:15.381Z,22.60
2022-10-20T09:04:47.597Z,22.62
2022-10-20T09:07:20.320Z,22.57
2022-10-20T09:09:46.669Z,22.56
2022-10-20T09:12:14.964Z,22.62
2022-10-20T09:14:41.278Z,22.69
2022-10-20T09:17:12.414Z,22.64
2022-10-20T09:19:38.738Z,22.56
2022-10-20T09:22:05.667Z,22.56
2022-10-20T09:24:32.013Z,22.65
2022-10-20T09:26:59.872Z,22.70
2022-10-20T09:29:36.605Z,22.68
2022-10-20T09:32:15.432Z,22.66
2022-10-20T09:34:49.249Z,22.59
2022-10-20T09:37:16.651Z,22.59
2022-10-20T09:40:03.151Z,22.65
2022-10-20T09:42:30.278Z,22.65
2022-10-20T09:44:57.096Z,22.68
2022-10-20T09:47:23.895Z,22.64
2022-10-20T09:49:59.905Z,22.62
2022-10-20T09:52:30.484Z,22.58
2022-10-20T09:55:01.327Z,22.91
2022-10-20T09:57:27.689Z,22.72
2022-10-20T09:59:54.010Z,21.63
2022-10-20T10:02:20.249Z,21.08
2022-10-20T10:04:47.271Z,21.16
2022-10-20T10:07:22.599Z,21.51
2022-10-20T10:10:00.415Z,21.87
2022-10-20T10:12:29.415Z,22.37
2022-10-20T10:14:56.917Z,22.47
2022-10-20T10:17:29.898Z,22.48
2022-10-20T10:19:56.533Z,22.48
2022-10-20T10:22:22.935Z,22.40
2022-10-20T10:24:49.254Z,22.37
2022-10-20T10:27:28.442Z,22.45
2022-10-20T10:29:55.159Z,22.26
2022-10-20T10:32:25.650Z,22.37
2022-10-20T10:35:04.167Z,22.44
2022-10-20T10:37:33.871Z,22.39
2022-10-20T10:40:02.106Z,22.41
2022-10-20T10:42:31.672Z,22.43
2022-10-20T10:45:03.260Z,22.00
2022-10-20T10:47:34.206Z,22.14
2022-10-20T10:50:20.573Z,22.47
2022-10-20T10:53:01.594Z,22.52
2022-10-20T10:55:47.672Z,22.54
2022-10-20T10:58:24.361Z,22.55
2022-10-20T11:01:05.723Z,22.57
2022-10-20T11:03:50.574Z,22.53
2022-10-20T11:06:32.198Z,22.53
2022-10-20T11:09:16.229Z,22.57
2022-10-20T11:11:48.754Z,22.31
2022-10-20T11:14:21.364Z,22.08
2022-10-20T11:16:47.626Z,22.01
2022-10-20T11:19:13.880Z,21.94
2022-10-20T11:21:50.178Z,21.94
2022-10-20T11:24:18.065Z,21.92
2022-10-20T11:26:50.297Z,22.00
2022-10-20T11:29:17.924Z,22.24
2022-10-20T11:31:54.782Z,22.31
2022-10-20T11:34:28.221Z,22.21
2022-10-20T11:37:06.527Z,22.11
2022-10-20T11:39:47.866Z,22.23
2022-10-20T11:42:20.170Z,22.41
2022-10-20T11:44:46.493Z,22.47
2022-10-20T11:47:13.507Z,22.42
2022-10-20T11:49:40.149Z,22.49
2022-10-20T11:52:20.302Z,22.52
2022-10-20T11:55:00.481Z,22.52
2022-10-20T11:57:35.730Z,22.41
2022-10-20T12:00:01.980Z,22.41
2022-10-20T12:02:43.309Z,22.43
2022-10-20T12:05:09.538Z,22.45
2022-10-20T12:08:05.596Z,22.41
2022-10-20T12:10:48.345Z,22.39
2022-10-20T12:13:18.334Z,22.29
2022-10-20T12:15:48.313Z,22.37
2022-10-20T12:18:30.557Z,22.42
2022-10-20T12:21:00.680Z,22.37
2022-10-20T12:23:57.535Z,22.33
2022-10-20T12:26:29.917Z,22.34
2022-10-20T12:28:56.606Z,22.39
2022-10-20T12:31:23.015Z,22.41
2022-10-20T12:33:49.253Z,22.35
2022-10-20T12:36:18.361Z,22.21
2022-10-20T12:38:45.273Z,22.20
2022-10-20T12:41:12.380Z,22.20
2022-10-20T12:43:46.545Z,22.17
2022-10-20T12:46:15.905Z,22.51
2022-10-20T12:48:43.524Z,22.45
2022-10-20T12:51:17.750Z,22.58
2022-10-20T12:53:44.065Z,22.91
2022-10-20T12:56:10.675Z,22.95
2022-10-20T12:58:37.559Z,22.99
2022-10-20T13:01:05.305Z,23.02
2022-10-20T13:03:31.578Z,23.04
2022-10-20T13:05:58.293Z,23.03
2022-10-20T13:08:28.429Z,23.00
2022-10-20T13:10:54.837Z,22.92
2022-10-20T13:13:21.162Z,23.02
2022-10-20T13:15:48.393Z,23.12
2022-10-20T13:18:20.032Z,23.08
2022-10-20T13:20:46.295Z,22.97
2022-10-20T13:23:12.815Z,23.05
2022-10-20T13:25:39.949Z,23.06
2022-10-20T13:28:12.322Z,23.07
2022-10-20T13:30:42.205Z,22.95
2022-10-20T13:33:33.727Z,22.97
2022-10-20T13:36:04.954Z,23.00
2022-10-20T13:38:32.873Z,23.02
2022-10-20T13:41:11.351Z,23.04
2022-10-20T13:43:56.638Z,23.08
2022-10-20T13:46:27.151Z,23.00
2022-10-20T13:49:07.228Z,22.93
2022-10-20T13:51:42.764Z,22.95
2022-10-20T13:54:09.100Z,22.99
2022-10-20T13:56:36.170Z,23.07
2022-10-20T13:59:06.135Z,23.00
2022-10-20T14:01:33.481Z,22.88
2022-10-20T14:03:59.817Z,22.93
2022-10-20T14:06:33.202Z,23.08
2022-10-20T14:09:03.871Z,22.86
2022-10-20T14:11:30.269Z,22.91
2022-10-20T14:13:56.906Z,22.89
2022-10-20T14:16:23.665Z,22.91
2022-10-20T14:18:59.917Z,22.86
2022-10-20T14:21:28.630Z,22.74
2022-10-20T14:23:55.554Z,22.78
2022-10-20T14:26:21.921Z,22.78
2022-10-20T14:28:51.402Z,22.72
2022-10-20T14:31:20.212Z,22.83
2022-10-20T14:33:46.591Z,22.73
2022-10-20T14:36:22.878Z,22.80
2022-10-20T14:38:50.095Z,22.87
2022-10-20T14:41:29.374Z,22.83
2022-10-20T14:43:56.746Z,22.79
2022-10-20T14:46:28.378Z,22.80
2022-10-20T14:48:54.707Z,22.77
2022-10-20T14:51:33.153Z,22.57
2022-10-20T14:54:18.210Z,22.37
2022-10-20T14:56:45.033Z,22.39
2022-10-20T14:59:14.746Z,22.31
2022-10-20T15:01:47.786Z,22.24
2022-10-20T15:04:16.111Z,22.13
2022-10-20T15:06:43.184Z,22.20
2022-10-20T15:09:30.181Z,22.24
2022-10-20T15:11:56.526Z,21.98
2022-10-20T15:14:22.880Z,21.97
2022-10-20T15:16:49.256Z,21.97
2022-10-20T15:19:26.322Z,22.03
2022-10-20T15:21:57.655Z,22.00
2022-10-20T15:24:24.006Z,22.00
2022-10-20T15:26:50.334Z,22.00
2022-10-20T15:29:16.663Z,21.99
2022-10-20T15:31:43.015Z,21.99
2022-10-20T15:34:09.370Z,21.96
2022-10-20T15:36:41.747Z,21.95
2022-10-20T15:39:08.742Z,21.93
2022-10-20T15:41:35.242Z,21.91
2022-10-20T15:44:07.698Z,21.91
2022-10-20T15:46:34.016Z,21.87
2022-10-20T15:49:00.357Z,21.89
2022-10-20T15:51:27.261Z,21.89
2022-10-20T15:53:53.688Z,21.88
2022-10-20T15:56:20.013Z,21.83
2022-10-20T15:58:46.360Z,21.82
2022-10-20T16:01:12.973Z,21.81
2022-10-20T16:03:41.227Z,21.81
2022-10-20T16:06:07.548Z,21.81
2022-10-20T16:08:35.344Z,21.83
2022-10-20T16:11:02.210Z,21.83
2022-10-20T16:13:28.538Z,21.81
2022-10-20T16:15:54.858Z,21.83
2022-10-20T16:18:21.187Z,21.86
2022-10-20T16:20:47.511Z,21.86
2022-10-20T16:23:13.841Z,21.87
2022-10-20T16:25:40.479Z,21.89
2022-10-20T16:28:06.803Z,21.86
2022-10-20T16:30:33.133Z,21.87
2022-10-20T16:32:59.456Z,21.87
2022-10-20T16:35:25.826Z,21.85
2022-10-20T16:37:52.148Z,21.87
2022-10-20T16:40:19.324Z,21.83
2022-10-20T16:42:45.633Z,21.82
2022-10-20T16:45:13.148Z,21.81
2022-10-20T16:47:39.912Z,21.80
2022-10-20T16:50:06.559Z,21.77
2022-10-20T16:52:32.926Z,21.78
2022-10-20T16:54:59.260Z,21.78
2022-10-20T16:57:26.672Z,21.77
2022-10-20T16:59:53.002Z,21.77
2022-10-20T17:02:19.354Z,21.74
2022-10-20T17:04:49.301Z,21.72
2022-10-20T17:07:15.842Z,21.72
2022-10-20T17:09:42.162Z,21.72
2022-10-20T17:12:08.478Z,21.70
2022-10-20T17:14:34.809Z,21.70
2022-10-20T17:17:01.127Z,21.68
2022-10-20T17:19:27.465Z,21.67
2022-10-20T17:21:56.151Z,21.65
2022-10-20T17:24:24.294Z,21.65
2022-10-20T17:26:50.627Z,21.66
2022-10-20T17:29:16.953Z,21.65
2022-10-20T17:31:43.286Z,21.63
2022-10-20T17:34:09.616Z,21.64
2022-10-20T17:36:35.933Z,21.63
2022-10-20T17:39:03.654Z,21.62
2022-10-20T17:41:30.069Z,21.62
2022-10-20T17:43:58.390Z,21.63
2022-10-20T17:46:24.725Z,21.62
2022-10-20T17:48:51.055Z,21.64
2022-10-20T17:51:19.394Z,21.72
2022-10-20T17:53:47.851Z,21.75
2022-10-20T17:56:18.079Z,21.72
2022-10-20T17:58:44.785Z,21.65
2022-10-20T18:01:11.075Z,21.71
2022-10-20T18:03:37.468Z,21.72
2022-10-20T18:06:07.602Z,21.82
2022-10-20T18:08:34.047Z,22.04
2022-10-20T18:11:00.403Z,22.16
2022-10-20T18:13:26.715Z,22.09
2022-10-20T18:15:53.043Z,21.90
2022-10-20T18:18:19.358Z,21.81
2022-10-20T18:20:55.623Z,21.75
2022-10-20T18:23:21.929Z,21.74
2022-10-20T18:25:48.314Z,21.78
2022-10-20T18:28:17.921Z,21.73
2022-10-20T18:30:44.491Z,21.69
2022-10-20T18:33:10.809Z,21.65
2022-10-20T18:35:37.300Z,21.71
2022-10-20T18:38:03.743Z,21.70
2022-10-20T18:40:30.074Z,21.64
2022-10-20T18:42:56.381Z,21.67
2022-10-20T18:45:25.260Z,21.70
2022-10-20T18:47:52.423Z,21.71
2022-10-20T18:50:18.734Z,21.72
2022-10-20T18:52:45.045Z,21.70
2022-10-20T18:55:11.761Z,21.72
2022-10-20T18:57:39.371Z,21.71
2022-10-20T19:00:06.895Z,21.71
2022-10-20T19:02:34.309Z,21.70
2022-10-20T19:05:01.175Z,21.69
2022-10-20T19:07:27.483Z,21.70
2022-10-20T19:09:55.603Z,21.71
2022-10-20T19:12:22.090Z,21.67
2022-10-20T19:14:48.413Z,21.66
2022-10-20T19:17:14.721Z,21.65
2022-10-20T19:19:43.087Z,21.67
2022-10-20T19:22:09.395Z,21.64
2022-10-20T19:24:39.687Z,21.66
2022-10-20T19:27:25.675Z,21.69
2022-10-20T19:29:52.312Z,21.71
2022-10-20T19:32:18.614Z,21.71
2022-10-20T19:34:45.278Z,21.71
2022-10-20T19:37:11.578Z,21.68
2022-10-20T19:39:38.704Z,21.71
2022-10-20T19:42:05.444Z,21.72
2022-10-20T19:44:31.778Z,21.72
2022-10-20T19:46:58.152Z,21.72
2022-10-20T19:49:24.487Z,21.69
2022-10-20T19:51:50.793Z,21.68
2022-10-20T19:54:17.113Z,21.65
2022-10-20T19:56:43.442Z,21.66
2022-10-20T19:59:09.873Z,21.65
2022-10-20T20:01:36.193Z,21.66
2022-10-20T20:04:02.802Z,21.68
2022-10-20T20:06:29.138Z,21.69
2022-10-20T20:08:59.408Z,21.69
2022-10-20T20:11:30.734Z,21.69
2022-10-20T20:13:57.911Z,21.69
2022-10-20T20:16:24.267Z,21.70
2022-10-20T20:18:50.640Z,21.71
2022-10-20T20:21:16.956Z,21.70
2022-10-20T20:24:00.107Z,21.70
2022-10-20T20:26:30.354Z,21.69
2022-10-20T20:28:56.714Z,21.69
2022-10-20T20:31:23.113Z,21.67
2022-10-20T20:33:49.482Z,21.68
2022-10-20T20:36:15.779Z,21.67
2022-10-20T20:38:42.361Z,21.67
2022-10-20T20:41:10.472Z,21.66
2022-10-20T20:43:36.794Z,21.66
2022-10-20T20:46:06.342Z,21.65
2022-10-20T20:48:32.670Z,21.64
2022-10-20T20:50:59.834Z,21.63
2022-10-20T20:53:26.199Z,21.63
2022-10-20T20:56:11.073Z,21.60
2022-10-20T20:58:37.383Z,21.62
2022-10-20T21:01:07.854Z,21.63
2022-10-20T21:03:34.205Z,21.61
2022-10-20T21:06:13.165Z,21.62
2022-10-20T21:08:39.735Z,21.61
2022-10-20T21:11:06.099Z,21.60
2022-10-20T21:13:32.866Z,21.58
2022-10-20T21:16:11.263Z,21.60
2022-10-20T21:18:37.945Z,21.54
2022-10-20T21:23:42.967Z,21.52
2022-10-20T21:26:09.471Z,21.50
2022-10-20T21:28:35.852Z,21.49
2022-10-20T21:31:05.846Z,21.51
2022-10-20T21:33:32.251Z,21.48
2022-10-20T21:36:05.167Z,21.50
2022-10-20T21:38:34.450Z,21.49
2022-10-20T21:41:10.820Z,21.46
2022-10-20T21:43:37.675Z,21.47
2022-10-20T21:46:27.299Z,21.46
2022-10-20T21:48:54.613Z,21.46
2022-10-20T21:51:21.735Z,21.45
2022-10-20T21:53:48.046Z,21.45
2022-10-20T21:56:14.385Z,21.44
2022-10-20T21:58:40.730Z,21.44
2022-10-20T22:01:17.382Z,21.43
2022-10-20T22:03:44.018Z,21.42
2022-10-20T22:06:10.699Z,21.42
2022-10-20T22:08:37.352Z,21.41
2022-10-20T22:11:04.422Z,21.41
2022-10-20T22:13:30.867Z,21.41
2022-10-20T22:15:57.186Z,21.40
2022-10-20T22:18:23.510Z,21.41
2022-10-20T22:20:49.835Z,21.42
2022-10-20T22:23:16.213Z,21.41
2022-10-20T22:25:42.579Z,21.39
2022-10-20T22:28:08.917Z,21.40
2022-10-20T22:30:35.282Z,21.41
2022-10-20T22:33:01.588Z,21.41
2022-10-20T22:35:27.973Z,21.40
2022-10-20T22:37:54.299Z,21.39
2022-10-20T22:40:20.611Z,21.40
2022-10-20T22:42:46.950Z,21.39
2022-10-20T22:45:13.291Z,21.39
2022-10-20T22:47:39.620Z,21.37
2022-10-20T22:50:06.097Z,21.37
2022-10-20T22:52:32.421Z,21.36
2022-10-20T22:54:58.725Z,21.34
2022-10-20T22:57:25.053Z,21.36
2022-10-20T22:59:51.694Z,21.33
2022-10-20T23:02:18.007Z,21.34
2022-10-20T23:04:44.321Z,21.33
2022-10-20T23:07:10.644Z,21.32
2022-10-20T23:09:36.970Z,21.32
2022-10-20T23:12:03.290Z,21.33
2022-10-20T23:14:29.608Z,21.32
2022-10-20T23:16:55.911Z,21.32
2022-10-20T23:19:22.256Z,21.32
2022-10-20T23:21:49.941Z,21.32
2022-10-20T23:24:16.302Z,21.32
2022-10-20T23:26:43.435Z,21.31
2022-10-20T23:29:09.882Z,21.31
2022-10-20T23:31:36.203Z,21.30
2022-10-20T23:34:02.521Z,21.31
2022-10-20T23:36:28.837Z,21.32
2022-10-20T23:38:55.155Z,21.31
2022-10-20T23:41:21.462Z,21.29
2022-10-20T23:43:47.782Z,21.28
2022-10-20T23:46:14.093Z,21.28
2022-10-20T23:48:40.432Z,21.28
2022-10-20T23:51:06.836Z,21.28
2022-10-20T23:53:34.600Z,21.27
2022-10-20T23:56:00.989Z,21.26
2022-10-20T23:58:27.315Z,21.26
